createdAt,value
2023-04-21T00:00:53.848Z,10.00
2023-04-21T00:01:55.712Z,10.00
2023-04-21T00:02:57.998Z,10.00
2023-04-21T00:04:00.506Z,9.90
2023-04-21T00:05:03.332Z,9.90
2023-04-21T00:06:06.804Z,9.90
2023-04-21T00:07:08.659Z,9.90
2023-04-21T00:08:10.496Z,9.90
2023-04-21T00:09:12.649Z,9.80
2023-04-21T00:10:14.673Z,9.80
2023-04-21T00:11:17.800Z,9.70
2023-04-21T00:12:19.946Z,9.80
2023-04-21T00:13:21.741Z,9.70
2023-04-21T00:14:23.573Z,9.90
2023-04-21T00:15:25.713Z,9.70
2023-04-21T00:16:41.923Z,9.80
2023-04-21T00:17:44.343Z,9.70
2023-04-21T00:18:47.201Z,9.70
2023-04-21T00:19:49.110Z,9.80
2023-04-21T00:20:51.851Z,9.80
2023-04-21T00:21:59.010Z,9.80
2023-04-21T00:23:01.154Z,9.80
2023-04-21T00:24:02.967Z,9.80
2023-04-21T00:25:05.434Z,9.80
2023-04-21T00:26:07.387Z,9.80
2023-04-21T00:27:09.213Z,9.80
2023-04-21T00:28:11.385Z,9.80
2023-04-21T00:29:13.280Z,9.80
2023-04-21T00:30:15.311Z,9.70
2023-04-21T00:31:17.148Z,9.70
2023-04-21T00:32:19.081Z,9.70
2023-04-21T00:33:21.111Z,9.70
2023-04-21T00:34:22.957Z,9.70
2023-04-21T00:35:24.838Z,9.70
2023-04-21T00:36:28.567Z,9.70
2023-04-21T00:37:31.148Z,9.70
2023-04-21T00:38:32.935Z,9.70
2023-04-21T00:39:35.221Z,9.70
2023-04-21T00:40:39.804Z,9.70
2023-04-21T00:41:42.618Z,9.70
2023-04-21T00:42:44.500Z,9.70
2023-04-21T00:44:10.265Z,9.70
2023-04-21T00:45:12.411Z,9.70
2023-04-21T00:46:14.507Z,9.70
2023-04-21T00:47:16.372Z,9.70
2023-04-21T00:48:20.382Z,9.70
2023-04-21T00:49:24.315Z,9.70
2023-04-21T00:50:27.158Z,9.70
2023-04-21T00:51:30.124Z,9.70
2023-04-21T00:52:32.227Z,9.70
2023-04-21T00:53:34.289Z,9.70
2023-04-21T00:54:37.011Z,9.70
2023-04-21T00:55:39.225Z,9.70
2023-04-21T00:56:41.223Z,9.60
2023-04-21T00:57:44.196Z,9.60
2023-04-21T00:58:46.250Z,9.60
2023-04-21T00:59:48.397Z,9.60
2023-04-21T01:00:50.398Z,9.70
2023-04-21T01:01:53.278Z,9.60
2023-04-21T01:02:56.307Z,9.60
2023-04-21T01:04:02.746Z,9.60
2023-04-21T01:05:09.364Z,9.60
2023-04-21T01:06:12.233Z,9.60
2023-04-21T01:07:14.397Z,9.60
2023-04-21T01:08:16.893Z,9.60
2023-04-21T01:09:19.078Z,9.50
2023-04-21T01:10:21.178Z,9.50
2023-04-21T01:11:22.953Z,9.50
2023-04-21T01:12:24.677Z,9.50
2023-04-21T01:13:26.387Z,9.50
2023-04-21T01:14:28.295Z,9.50
2023-04-21T01:15:31.691Z,9.50
2023-04-21T01:16:34.592Z,9.50
2023-04-21T01:17:38.922Z,9.50
2023-04-21T01:18:42.070Z,9.50
2023-04-21T01:19:44.809Z,9.50
2023-04-21T01:20:46.912Z,9.50
2023-04-21T01:21:49.424Z,9.50
2023-04-21T01:22:51.800Z,9.50
2023-04-21T01:23:53.780Z,9.50
2023-04-21T01:24:57.137Z,9.50
2023-04-21T01:25:59.180Z,9.50
2023-04-21T01:27:01.623Z,9.50
2023-04-21T01:28:04.100Z,9.40
2023-04-21T01:29:06.340Z,9.40
2023-04-21T01:30:10.142Z,9.50
2023-04-21T01:31:12.273Z,9.40
2023-04-21T01:32:19.866Z,9.40
2023-04-21T01:33:22.222Z,9.50
2023-04-21T01:34:24.045Z,9.60
2023-04-21T01:35:26.034Z,9.50
2023-04-21T01:36:28.438Z,9.50
2023-04-21T01:37:32.731Z,9.50
2023-04-21T01:38:34.595Z,9.50
2023-04-21T01:39:44.955Z,9.50
2023-04-21T01:40:49.892Z,9.40
2023-04-21T01:41:51.714Z,9.40
2023-04-21T01:42:53.571Z,9.40
2023-04-21T01:43:55.376Z,9.40
2023-04-21T01:44:57.636Z,9.30
2023-04-21T01:45:59.607Z,9.30
2023-04-21T01:47:01.606Z,9.30
2023-04-21T01:48:03.831Z,9.30
2023-04-21T01:49:06.994Z,9.30
2023-04-21T01:50:10.015Z,9.30
2023-04-21T01:51:11.746Z,9.30
2023-04-21T01:52:13.603Z,9.30
2023-04-21T01:53:15.467Z,9.30
2023-04-21T01:54:17.319Z,9.30
2023-04-21T01:55:19.229Z,9.30
2023-04-21T01:56:21.368Z,9.20
2023-04-21T01:57:23.228Z,9.20
2023-04-21T01:58:25.088Z,9.20
2023-04-21T01:59:26.943Z,9.20
2023-04-21T02:00:28.826Z,9.10
2023-04-21T02:01:30.795Z,9.10
2023-04-21T02:02:32.745Z,9.20
2023-04-21T02:03:34.871Z,9.20
2023-04-21T02:04:37.067Z,9.20
2023-04-21T02:05:38.977Z,9.20
2023-04-21T02:06:43.286Z,9.20
2023-04-21T02:07:45.609Z,9.20
2023-04-21T02:08:47.457Z,9.20
2023-04-21T02:09:49.296Z,9.20
2023-04-21T02:10:51.189Z,9.20
2023-04-21T02:11:53.080Z,9.20
2023-04-21T02:12:55.000Z,9.20
2023-04-21T02:13:57.008Z,9.20
2023-04-21T02:14:58.939Z,9.20
2023-04-21T02:16:12.561Z,9.20
2023-04-21T02:17:15.301Z,9.20
2023-04-21T02:18:17.216Z,9.20
2023-04-21T02:19:19.443Z,9.20
2023-04-21T02:20:21.353Z,9.20
2023-04-21T02:21:27.280Z,9.10
2023-04-21T02:22:29.438Z,9.10
2023-04-21T02:23:31.139Z,9.10
2023-04-21T02:24:32.888Z,9.10
2023-04-21T02:25:34.904Z,9.10
2023-04-21T02:26:36.847Z,9.10
2023-04-21T02:27:38.805Z,9.00
2023-04-21T02:28:40.982Z,9.00
2023-04-21T02:29:42.840Z,9.00
2023-04-21T02:30:44.744Z,9.00
2023-04-21T02:31:58.808Z,9.00
2023-04-21T02:33:05.048Z,8.90
2023-04-21T02:34:07.042Z,8.90
2023-04-21T02:35:09.581Z,8.90
2023-04-21T02:36:11.578Z,9.00
2023-04-21T02:37:13.493Z,8.80
2023-04-21T02:38:15.266Z,8.80
2023-04-21T02:39:17.618Z,8.80
2023-04-21T02:40:19.543Z,8.80
2023-04-21T02:41:21.408Z,8.80
2023-04-21T02:42:23.310Z,8.80
2023-04-21T02:43:25.266Z,8.80
2023-04-21T02:44:27.062Z,8.80
2023-04-21T02:45:28.976Z,8.80
2023-04-21T02:46:30.979Z,8.80
2023-04-21T02:47:33.139Z,8.80
2023-04-21T02:48:35.521Z,8.80
2023-04-21T02:49:42.107Z,8.80
2023-04-21T02:50:44.106Z,8.80
2023-04-21T02:51:45.934Z,8.70
2023-04-21T02:52:47.636Z,8.70
2023-04-21T02:53:49.569Z,8.70
2023-04-21T02:54:51.308Z,8.70
2023-04-21T02:55:53.542Z,8.70
2023-04-21T02:56:55.404Z,8.70
2023-04-21T02:57:57.243Z,8.70
2023-04-21T02:58:58.985Z,8.80
2023-04-21T03:00:00.845Z,8.70
2023-04-21T03:01:03.978Z,8.70
2023-04-21T03:02:06.136Z,8.70
2023-04-21T03:03:08.828Z,8.70
2023-04-21T03:04:10.764Z,8.80
2023-04-21T03:05:13.317Z,8.80
2023-04-21T03:06:15.213Z,8.70
2023-04-21T03:07:17.367Z,8.70
2023-04-21T03:08:19.074Z,8.70
2023-04-21T03:09:21.115Z,8.70
2023-04-21T03:10:23.218Z,8.70
2023-04-21T03:11:25.274Z,8.90
2023-04-21T03:12:27.134Z,8.70
2023-04-21T03:13:29.030Z,8.70
2023-04-21T03:14:30.863Z,8.70
2023-04-21T03:15:32.872Z,8.70
2023-04-21T03:16:34.822Z,8.70
2023-04-21T03:17:38.019Z,8.70
2023-04-21T03:18:39.949Z,8.90
2023-04-21T03:19:42.002Z,8.70
2023-04-21T03:20:44.413Z,8.70
2023-04-21T03:21:46.531Z,8.60
2023-04-21T03:22:48.438Z,8.60
2023-04-21T03:23:50.566Z,8.60
2023-04-21T03:24:52.286Z,8.60
2023-04-21T03:25:54.636Z,8.60
2023-04-21T03:26:57.317Z,8.60
2023-04-21T03:27:59.178Z,8.60
2023-04-21T03:29:00.973Z,8.60
2023-04-21T03:30:04.168Z,8.60
2023-04-21T03:31:06.071Z,8.50
2023-04-21T03:32:07.890Z,8.50
2023-04-21T03:33:11.872Z,8.50
2023-04-21T03:34:13.620Z,8.40
2023-04-21T03:35:15.462Z,8.40
2023-04-21T03:36:17.234Z,8.40
2023-04-21T03:37:18.966Z,8.30
2023-04-21T03:38:20.829Z,8.40
2023-04-21T03:39:23.434Z,8.40
2023-04-21T03:40:25.844Z,8.40
2023-04-21T03:41:27.631Z,8.30
2023-04-21T03:42:30.207Z,8.30
2023-04-21T03:43:31.924Z,8.30
2023-04-21T03:44:34.919Z,8.30
2023-04-21T03:45:36.701Z,8.30
2023-04-21T03:46:38.600Z,8.30
2023-04-21T03:47:40.338Z,8.30
2023-04-21T03:48:42.013Z,8.30
2023-04-21T03:49:43.820Z,8.30
2023-04-21T03:50:45.906Z,8.30
2023-04-21T03:51:47.562Z,8.30
2023-04-21T03:52:49.332Z,8.30
2023-04-21T03:53:51.037Z,8.50
2023-04-21T03:54:52.896Z,8.20
2023-04-21T03:55:54.528Z,8.30
2023-04-21T03:56:56.278Z,8.30
2023-04-21T03:57:57.958Z,8.20
2023-04-21T03:58:59.684Z,8.20
2023-04-21T04:00:01.765Z,8.30
2023-04-21T04:01:06.664Z,8.30
2023-04-21T04:02:08.726Z,8.30
2023-04-21T04:03:14.602Z,8.30
2023-04-21T04:04:16.610Z,8.30
2023-04-21T04:05:18.510Z,8.30
2023-04-21T04:06:20.239Z,8.30
2023-04-21T04:07:21.938Z,8.30
2023-04-21T04:08:23.626Z,8.40
2023-04-21T04:09:25.318Z,8.30
2023-04-21T04:10:27.357Z,8.40
2023-04-21T04:11:29.006Z,8.20
2023-04-21T04:12:31.139Z,8.30
2023-04-21T04:13:32.815Z,8.30
2023-04-21T04:14:34.489Z,8.30
2023-04-21T04:15:36.619Z,8.30
2023-04-21T04:16:38.756Z,8.30
2023-04-21T04:17:40.769Z,8.30
2023-04-21T04:18:45.960Z,8.30
2023-04-21T04:19:48.079Z,8.40
2023-04-21T04:20:49.931Z,8.40
2023-04-21T04:21:51.564Z,8.30
2023-04-21T04:22:53.224Z,8.40
2023-04-21T04:23:55.164Z,8.30
2023-04-21T04:24:57.518Z,8.30
2023-04-21T04:25:59.649Z,8.40
2023-04-21T04:27:02.946Z,8.40
2023-04-21T04:28:05.418Z,8.40
2023-04-21T04:29:10.842Z,8.30
2023-04-21T04:30:15.758Z,8.30
2023-04-21T04:31:17.863Z,8.30
2023-04-21T04:32:19.601Z,8.30
2023-04-21T04:33:21.697Z,8.30
2023-04-21T04:34:23.562Z,8.30
2023-04-21T04:35:25.468Z,8.30
2023-04-21T04:36:28.782Z,8.30
2023-04-21T04:37:31.801Z,8.30
2023-04-21T04:38:35.071Z,8.30
2023-04-21T04:39:37.370Z,8.30
2023-04-21T04:40:39.059Z,8.30
2023-04-21T04:41:41.458Z,8.30
2023-04-21T04:42:45.508Z,8.30
2023-04-21T04:43:47.540Z,8.30
2023-04-21T04:44:49.276Z,8.30
2023-04-21T04:45:51.858Z,8.30
2023-04-21T04:46:54.258Z,8.30
2023-04-21T04:47:57.612Z,8.30
2023-04-21T04:49:00.631Z,8.30
2023-04-21T04:50:02.598Z,8.20
2023-04-21T04:51:04.611Z,8.20
2023-04-21T04:52:07.055Z,8.20
2023-04-21T04:53:08.922Z,8.20
2023-04-21T04:54:10.962Z,8.20
2023-04-21T04:55:14.102Z,8.20
2023-04-21T04:56:16.206Z,8.20
2023-04-21T04:57:18.233Z,8.30
2023-04-21T04:58:20.595Z,8.30
2023-04-21T04:59:22.566Z,8.30
2023-04-21T05:00:24.462Z,8.50
2023-04-21T05:01:30.447Z,8.40
2023-04-21T05:02:33.100Z,8.40
2023-04-21T05:03:35.304Z,8.40
2023-04-21T05:04:37.744Z,8.40
2023-04-21T05:05:40.027Z,8.40
2023-04-21T05:06:42.179Z,8.40
2023-04-21T05:07:44.116Z,8.40
2023-04-21T05:08:46.195Z,8.50
2023-04-21T05:09:48.239Z,8.50
2023-04-21T05:10:50.052Z,8.50
2023-04-21T05:11:53.034Z,8.60
2023-04-21T05:12:54.788Z,8.60
2023-04-21T05:13:56.673Z,8.60
2023-04-21T05:14:58.540Z,8.60
2023-04-21T05:16:04.385Z,8.60
2023-04-21T05:17:07.976Z,8.60
2023-04-21T05:18:10.477Z,8.70
2023-04-21T05:19:12.165Z,8.70
2023-04-21T05:20:14.117Z,8.60
2023-04-21T05:21:27.691Z,8.60
2023-04-21T05:22:29.583Z,8.60
2023-04-21T05:23:31.444Z,8.60
2023-04-21T05:24:34.364Z,8.60
2023-04-21T05:25:38.605Z,8.60
2023-04-21T05:26:40.316Z,8.70
2023-04-21T05:27:43.103Z,8.70
2023-04-21T05:28:44.979Z,8.70
2023-04-21T05:29:46.765Z,8.70
2023-04-21T05:30:48.578Z,8.80
2023-04-21T05:31:50.271Z,8.80
2023-04-21T05:32:52.098Z,8.80
2023-04-21T05:33:53.954Z,8.80
2023-04-21T05:34:55.648Z,8.80
2023-04-21T05:35:57.354Z,8.90
2023-04-21T05:36:59.171Z,8.90
2023-04-21T05:38:01.181Z,8.90
2023-04-21T05:39:03.299Z,8.90
2023-04-21T05:40:05.579Z,8.90
2023-04-21T05:41:08.204Z,9.00
2023-04-21T05:42:11.531Z,9.00
2023-04-21T05:43:13.252Z,9.00
2023-04-21T05:44:18.373Z,9.10
2023-04-21T05:45:22.162Z,9.00
2023-04-21T05:46:24.044Z,9.00
2023-04-21T05:47:25.894Z,9.00
2023-04-21T05:48:28.791Z,8.90
2023-04-21T05:49:30.596Z,8.90
2023-04-21T05:50:35.579Z,9.00
2023-04-21T05:51:37.277Z,8.90
2023-04-21T05:52:39.429Z,8.90
2023-04-21T05:53:42.933Z,8.90
2023-04-21T05:54:44.819Z,8.90
2023-04-21T05:55:46.598Z,8.90
2023-04-21T05:56:48.517Z,8.90
2023-04-21T05:57:50.361Z,9.00
2023-04-21T05:58:52.118Z,9.00
2023-04-21T05:59:53.784Z,9.00
2023-04-21T06:00:55.715Z,9.10
2023-04-21T06:01:58.493Z,9.10
2023-04-21T06:03:00.434Z,9.10
2023-04-21T06:04:02.544Z,9.10
2023-04-21T06:05:04.747Z,9.20
2023-04-21T06:06:08.072Z,9.20
2023-04-21T06:07:15.963Z,9.20
2023-04-21T06:08:19.272Z,9.20
2023-04-21T06:09:21.230Z,9.30
2023-04-21T06:10:23.084Z,9.30
2023-04-21T06:11:24.974Z,9.30
2023-04-21T06:12:26.696Z,9.30
2023-04-21T06:13:28.848Z,9.30
2023-04-21T06:14:30.775Z,9.30
2023-04-21T06:15:33.819Z,9.30
2023-04-21T06:16:47.643Z,9.30
2023-04-21T06:17:55.287Z,9.40
2023-04-21T06:18:58.935Z,9.40
2023-04-21T06:20:01.737Z,9.40
2023-04-21T06:21:03.598Z,9.40
2023-04-21T06:22:05.755Z,9.50
2023-04-21T06:23:07.647Z,9.50
2023-04-21T06:24:09.615Z,9.50
2023-04-21T06:25:11.293Z,9.50
2023-04-21T06:26:14.135Z,9.50
2023-04-21T06:27:16.095Z,9.40
2023-04-21T06:28:17.743Z,9.40
2023-04-21T06:29:20.060Z,9.40
2023-04-21T06:30:21.949Z,9.40
2023-04-21T06:31:23.700Z,9.40
2023-04-21T06:32:25.612Z,9.30
2023-04-21T06:33:29.951Z,9.30
2023-04-21T06:34:31.717Z,9.30
2023-04-21T06:35:33.642Z,9.40
2023-04-21T06:36:35.558Z,9.40
2023-04-21T06:37:37.733Z,9.40
2023-04-21T06:38:43.392Z,9.50
2023-04-21T06:39:45.561Z,9.60
2023-04-21T06:40:47.538Z,9.60
2023-04-21T06:41:49.447Z,9.70
2023-04-21T06:42:51.284Z,9.80
2023-04-21T06:43:52.999Z,9.80
2023-04-21T06:44:56.225Z,9.90
2023-04-21T06:45:57.919Z,9.90
2023-04-21T06:46:59.792Z,10.00
2023-04-21T06:48:01.623Z,10.00
2023-04-21T06:49:03.468Z,10.00
2023-04-21T06:50:06.372Z,10.00
2023-04-21T06:51:08.423Z,10.00
2023-04-21T06:52:10.335Z,10.10
2023-04-21T06:53:12.733Z,10.10
2023-04-21T06:54:14.623Z,10.10
2023-04-21T06:55:16.334Z,10.10
2023-04-21T06:56:18.070Z,10.10
2023-04-21T06:57:19.952Z,10.10
2023-04-21T06:58:21.997Z,10.10
2023-04-21T06:59:24.043Z,10.10
2023-04-21T07:00:25.855Z,10.10
2023-04-21T07:01:27.664Z,10.10
2023-04-21T07:02:29.520Z,10.10
2023-04-21T07:03:31.460Z,10.10
2023-04-21T07:04:33.405Z,10.10
2023-04-21T07:05:35.500Z,10.10
2023-04-21T07:06:37.181Z,10.10
2023-04-21T07:07:39.053Z,10.10
2023-04-21T07:08:41.623Z,10.00
2023-04-21T07:09:47.608Z,10.00
2023-04-21T07:10:49.432Z,10.00
2023-04-21T07:11:51.497Z,10.00
2023-04-21T07:12:53.661Z,10.00
2023-04-21T07:13:55.806Z,10.00
2023-04-21T07:14:57.572Z,10.00
2023-04-21T07:15:59.371Z,10.00
2023-04-21T07:17:01.538Z,10.00
2023-04-21T07:18:05.795Z,10.10
2023-04-21T07:19:08.319Z,10.10
2023-04-21T07:20:10.277Z,10.10
2023-04-21T07:21:12.074Z,10.10
2023-04-21T07:22:13.814Z,10.10
2023-04-21T07:23:15.455Z,10.20
2023-04-21T07:24:17.144Z,10.20
2023-04-21T07:25:19.108Z,10.20
2023-04-21T07:26:20.819Z,10.30
2023-04-21T07:27:22.992Z,10.30
2023-04-21T07:28:24.807Z,10.30
2023-04-21T07:29:26.902Z,10.30
2023-04-21T07:30:29.467Z,10.40
2023-04-21T07:31:31.291Z,10.40
2023-04-21T07:32:34.052Z,10.50
2023-04-21T07:33:35.901Z,10.40
2023-04-21T07:34:37.716Z,10.50
2023-04-21T07:35:39.637Z,10.50
2023-04-21T07:36:41.519Z,10.50
2023-04-21T07:37:43.252Z,10.50
2023-04-21T07:38:45.285Z,10.50
2023-04-21T07:39:47.091Z,10.50
2023-04-21T07:40:48.777Z,10.60
2023-04-21T07:41:50.704Z,10.60
2023-04-21T07:42:52.610Z,10.70
2023-04-21T07:43:54.906Z,10.70
2023-04-21T07:44:57.625Z,10.70
2023-04-21T07:45:59.454Z,10.80
2023-04-21T07:47:01.438Z,10.80
2023-04-21T07:48:03.429Z,10.90
2023-04-21T07:49:05.262Z,10.90
2023-04-21T07:50:07.881Z,11.10
2023-04-21T07:51:09.714Z,11.00
2023-04-21T07:52:11.892Z,11.00
2023-04-21T07:53:13.739Z,11.00
2023-04-21T07:54:15.562Z,11.10
2023-04-21T07:55:17.527Z,11.10
2023-04-21T07:56:19.641Z,11.10
2023-04-21T07:57:21.512Z,11.10
2023-04-21T07:58:23.387Z,11.10
2023-04-21T07:59:25.437Z,11.20
2023-04-21T08:00:27.420Z,11.20
2023-04-21T08:01:30.548Z,11.20
2023-04-21T08:02:32.730Z,11.20
2023-04-21T08:03:34.749Z,11.30
2023-04-21T08:04:37.111Z,11.50
2023-04-21T08:05:41.196Z,11.30
2023-04-21T08:06:43.831Z,11.30
2023-04-21T08:07:45.815Z,11.30
2023-04-21T08:08:48.060Z,11.40
2023-04-21T08:09:49.853Z,11.40
2023-04-21T08:10:51.596Z,11.50
2023-04-21T08:11:54.067Z,11.50
2023-04-21T08:12:56.089Z,11.50
2023-04-21T08:13:58.308Z,11.60
2023-04-21T08:15:00.141Z,11.70
2023-04-21T08:16:02.016Z,11.70
2023-04-21T08:17:09.558Z,11.80
2023-04-21T08:18:11.610Z,11.80
2023-04-21T08:19:13.471Z,11.80
2023-04-21T08:20:15.461Z,11.80
2023-04-21T08:21:17.117Z,11.80
2023-04-21T08:22:18.851Z,11.80
2023-04-21T08:23:20.815Z,11.90
2023-04-21T08:24:22.924Z,11.80
2023-04-21T08:25:25.225Z,11.80
2023-04-21T08:26:27.494Z,11.90
2023-04-21T08:27:29.279Z,11.80
2023-04-21T08:28:31.015Z,11.80
2023-04-21T08:29:32.823Z,11.80
2023-04-21T08:30:34.772Z,11.80
2023-04-21T08:31:37.153Z,11.90
2023-04-21T08:32:38.989Z,11.90
2023-04-21T08:33:49.862Z,12.00
2023-04-21T08:34:56.167Z,12.00
2023-04-21T08:36:04.223Z,12.00
2023-04-21T08:37:09.861Z,12.00
2023-04-21T08:38:11.578Z,12.00
2023-04-21T08:39:14.791Z,12.10
2023-04-21T08:40:17.004Z,12.10
2023-04-21T08:41:19.733Z,12.20
2023-04-21T08:42:21.778Z,12.20
2023-04-21T08:43:23.523Z,12.20
2023-04-21T08:44:25.694Z,12.20
2023-04-21T08:45:28.690Z,12.20
2023-04-21T08:46:31.875Z,12.20
2023-04-21T08:47:36.780Z,12.20
2023-04-21T08:48:39.172Z,12.20
2023-04-21T08:49:45.487Z,12.30
2023-04-21T08:50:49.219Z,12.30
2023-04-21T08:51:51.736Z,12.30
2023-04-21T08:52:54.738Z,12.30
2023-04-21T08:53:56.844Z,12.40
2023-04-21T08:54:59.177Z,12.40
2023-04-21T08:56:10.665Z,12.40
2023-04-21T08:57:15.661Z,12.50
2023-04-21T08:58:17.913Z,12.50
2023-04-21T08:59:19.928Z,12.60
2023-04-21T09:00:23.544Z,12.60
2023-04-21T09:01:25.405Z,12.60
2023-04-21T09:02:27.634Z,12.60
2023-04-21T09:03:34.340Z,12.60
2023-04-21T09:04:40.980Z,12.70
2023-04-21T09:05:43.428Z,12.70
2023-04-21T09:06:46.672Z,12.70
2023-04-21T09:07:48.693Z,12.70
2023-04-21T09:08:58.035Z,12.80
2023-04-21T09:10:00.932Z,12.70
2023-04-21T09:11:02.769Z,12.70
2023-04-21T09:12:04.679Z,12.70
2023-04-21T09:13:10.576Z,12.70
2023-04-21T09:14:13.746Z,12.70
2023-04-21T09:15:17.379Z,12.80
2023-04-21T09:16:21.405Z,12.90
2023-04-21T09:17:32.443Z,12.90
2023-04-21T09:18:36.900Z,12.90
2023-04-21T09:19:38.659Z,13.00
2023-04-21T09:20:41.185Z,13.00
2023-04-21T09:21:44.441Z,13.10
2023-04-21T09:22:48.030Z,13.10
2023-04-21T09:23:52.026Z,13.20
2023-04-21T09:25:00.101Z,13.20
2023-04-21T09:26:03.484Z,13.30
2023-04-21T09:27:05.161Z,13.30
2023-04-21T09:28:12.289Z,13.30
2023-04-21T09:29:14.859Z,13.30
2023-04-21T09:30:20.253Z,13.40
2023-04-21T09:31:29.327Z,13.40
2023-04-21T09:32:37.812Z,13.50
2023-04-21T09:33:49.760Z,13.50
2023-04-21T09:35:01.955Z,13.50
2023-04-21T09:36:05.704Z,13.60
2023-04-21T09:37:07.380Z,13.70
2023-04-21T09:38:13.038Z,13.70
2023-04-21T09:39:34.303Z,13.70
2023-04-21T09:40:36.979Z,13.90
2023-04-21T09:41:38.920Z,13.80
2023-04-21T09:42:43.074Z,13.80
2023-04-21T09:43:46.395Z,13.80
2023-04-21T09:44:55.360Z,13.90
2023-04-21T09:46:03.058Z,13.90
2023-04-21T09:47:06.118Z,14.00
2023-04-21T09:48:10.031Z,14.00
2023-04-21T09:49:13.747Z,14.10
2023-04-21T09:50:20.612Z,14.10
2023-04-21T09:52:02.109Z,14.10
2023-04-21T09:52:55.876Z,14.20
2023-04-21T09:54:30.023Z,14.20
2023-04-21T09:55:33.487Z,14.20
2023-04-21T09:56:40.682Z,14.20
2023-04-21T09:57:43.946Z,14.20
2023-04-21T09:58:57.738Z,14.20
2023-04-21T10:00:06.149Z,14.20
2023-04-21T10:01:09.339Z,14.20
2023-04-21T10:02:13.137Z,14.30
2023-04-21T10:03:18.194Z,14.40
2023-04-21T10:04:20.582Z,14.40
2023-04-21T10:05:24.168Z,14.40
2023-04-21T10:06:26.548Z,14.60
2023-04-21T10:07:28.368Z,14.40
2023-04-21T10:08:30.637Z,14.50
2023-04-21T10:09:55.225Z,14.50
2023-04-21T10:10:57.397Z,14.60
2023-04-21T10:12:02.753Z,14.70
2023-04-21T10:13:04.995Z,14.70
2023-04-21T10:14:08.612Z,14.70
2023-04-21T10:15:31.591Z,14.80
2023-04-21T10:16:37.874Z,14.80
2023-04-21T10:17:40.114Z,14.80
2023-04-21T10:18:46.414Z,14.90
2023-04-21T10:19:51.285Z,14.90
2023-04-21T10:20:58.614Z,14.90
2023-04-21T10:22:00.309Z,15.00
2023-04-21T10:23:01.946Z,15.00
2023-04-21T10:24:07.071Z,15.00
2023-04-21T10:25:10.199Z,15.10
2023-04-21T10:26:22.847Z,15.10
2023-04-21T10:27:40.756Z,15.10
2023-04-21T10:28:59.664Z,15.10
2023-04-21T10:30:01.995Z,15.10
2023-04-21T10:31:23.149Z,15.10
2023-04-21T10:32:41.591Z,15.20
2023-04-21T10:33:43.481Z,15.20
2023-04-21T10:34:45.718Z,15.30
2023-04-21T10:36:02.124Z,15.30
2023-04-21T10:37:03.792Z,15.30
2023-04-21T10:38:08.208Z,15.40
2023-04-21T10:39:13.151Z,15.50
2023-04-21T10:40:43.169Z,15.40
2023-04-21T10:41:46.510Z,15.40
2023-04-21T10:42:49.638Z,15.50
2023-04-21T10:43:51.833Z,15.50
2023-04-21T10:44:56.806Z,15.50
2023-04-21T10:45:58.777Z,15.50
2023-04-21T10:47:00.884Z,15.50
2023-04-21T10:48:04.172Z,15.60
2023-04-21T10:49:09.503Z,15.60
2023-04-21T10:50:26.218Z,15.60
2023-04-21T10:51:32.889Z,15.70
2023-04-21T10:52:34.605Z,15.70
2023-04-21T10:53:43.798Z,15.80
2023-04-21T10:54:48.366Z,15.90
2023-04-21T10:55:50.765Z,15.90
2023-04-21T10:56:59.203Z,16.00
2023-04-21T10:58:11.633Z,16.00
2023-04-21T10:59:15.162Z,16.10
2023-04-21T11:00:23.027Z,16.20
2023-04-21T11:01:25.181Z,16.20
2023-04-21T11:02:27.590Z,16.30
2023-04-21T11:03:36.803Z,16.30
2023-04-21T11:04:45.971Z,16.30
2023-04-21T11:05:47.901Z,16.30
2023-04-21T11:07:08.575Z,16.30
2023-04-21T11:08:16.583Z,16.30
2023-04-21T11:09:18.709Z,16.40
2023-04-21T11:10:20.583Z,16.40
2023-04-21T11:11:27.090Z,16.50
2023-04-21T11:12:31.259Z,16.50
2023-04-21T11:13:33.748Z,16.50
2023-04-21T11:14:37.118Z,16.50
2023-04-21T11:15:38.855Z,16.40
2023-04-21T11:16:42.945Z,16.40
2023-04-21T11:17:47.207Z,16.20
2023-04-21T11:18:49.134Z,16.30
2023-04-21T11:19:56.108Z,16.30
2023-04-21T11:21:10.977Z,16.30
2023-04-21T11:22:12.874Z,16.40
2023-04-21T11:23:18.871Z,16.40
2023-04-21T11:24:22.113Z,16.50
2023-04-21T11:25:24.283Z,16.50
2023-04-21T11:26:34.542Z,16.60
2023-04-21T11:27:36.682Z,16.80
2023-04-21T11:28:40.905Z,16.70
2023-04-21T11:29:44.528Z,16.70
2023-04-21T11:30:46.828Z,16.80
2023-04-21T11:31:50.222Z,16.90
2023-04-21T11:32:56.369Z,16.90
2023-04-21T11:33:59.721Z,16.90
2023-04-21T11:35:01.649Z,17.00
2023-04-21T11:36:09.308Z,16.90
2023-04-21T11:37:16.484Z,17.00
2023-04-21T11:38:21.344Z,17.00
2023-04-21T11:39:23.366Z,17.00
2023-04-21T11:40:25.395Z,17.00
2023-04-21T11:41:27.226Z,17.00
2023-04-21T11:42:29.375Z,17.00
2023-04-21T11:43:31.668Z,17.00
2023-04-21T11:44:41.908Z,17.00
2023-04-21T11:45:43.619Z,17.00
2023-04-21T11:46:49.532Z,17.00
2023-04-21T11:47:51.419Z,17.10
2023-04-21T11:49:06.962Z,17.10
2023-04-21T11:50:09.852Z,17.20
2023-04-21T11:51:20.721Z,17.30
2023-04-21T11:52:29.303Z,17.30
2023-04-21T11:53:31.185Z,17.50
2023-04-21T11:54:32.910Z,17.60
2023-04-21T11:55:37.261Z,17.30
2023-04-21T11:56:43.804Z,17.50
2023-04-21T11:57:45.894Z,17.50
2023-04-21T11:58:52.730Z,17.50
2023-04-21T11:59:57.228Z,17.50
2023-04-21T12:00:59.009Z,17.50
2023-04-21T12:02:04.433Z,17.80
2023-04-21T12:03:10.429Z,17.60
2023-04-21T12:04:17.334Z,17.70
2023-04-21T12:05:19.186Z,17.70
2023-04-21T12:06:22.541Z,17.70
2023-04-21T12:07:29.270Z,17.70
2023-04-21T12:08:34.462Z,17.80
2023-04-21T12:09:36.692Z,17.90
2023-04-21T12:10:38.616Z,17.90
2023-04-21T12:11:40.714Z,17.90
2023-04-21T12:12:43.556Z,17.90
2023-04-21T12:13:45.787Z,17.90
2023-04-21T12:14:49.551Z,17.90
2023-04-21T12:15:51.664Z,17.90
2023-04-21T12:16:58.208Z,18.00
2023-04-21T12:18:00.326Z,18.00
2023-04-21T12:19:02.849Z,18.00
2023-04-21T12:20:08.586Z,18.10
2023-04-21T12:21:15.618Z,18.10
2023-04-21T12:22:18.779Z,18.30
2023-04-21T12:23:20.477Z,18.20
2023-04-21T12:24:22.562Z,18.20
2023-04-21T12:25:25.155Z,18.20
2023-04-21T12:26:27.103Z,18.20
2023-04-21T12:27:29.029Z,18.30
2023-04-21T12:28:31.219Z,18.30
2023-04-21T12:29:35.720Z,18.30
2023-04-21T12:30:40.083Z,18.40
2023-04-21T12:31:44.059Z,18.50
2023-04-21T12:32:47.912Z,18.50
2023-04-21T12:33:49.702Z,18.60
2023-04-21T12:34:51.591Z,18.70
2023-04-21T12:35:53.358Z,18.90
2023-04-21T12:36:55.585Z,18.90
2023-04-21T12:37:57.403Z,19.00
2023-04-21T12:38:59.107Z,19.10
2023-04-21T12:40:00.943Z,19.10
2023-04-21T12:41:02.774Z,19.40
2023-04-21T12:42:04.705Z,19.30
2023-04-21T12:43:09.037Z,19.50
2023-04-21T12:44:12.722Z,19.40
2023-04-21T12:45:14.467Z,19.50
2023-04-21T12:46:16.831Z,19.60
2023-04-21T12:47:21.685Z,19.80
2023-04-21T12:48:24.555Z,19.60
2023-04-21T12:49:26.474Z,19.70
2023-04-21T12:50:28.352Z,19.80
2023-04-21T12:51:31.642Z,19.80
2023-04-21T12:52:33.391Z,19.90
2023-04-21T12:53:37.842Z,20.10
2023-04-21T12:54:39.471Z,20.00
2023-04-21T12:55:47.047Z,20.00
2023-04-21T12:56:58.887Z,20.10
2023-04-21T12:58:00.707Z,20.20
2023-04-21T12:59:02.659Z,20.40
2023-04-21T13:00:05.996Z,20.20
2023-04-21T13:01:07.951Z,20.20
2023-04-21T13:02:10.112Z,20.30
2023-04-21T13:03:12.126Z,20.20
2023-04-21T13:04:14.033Z,20.20
2023-04-21T13:05:15.998Z,20.40
2023-04-21T13:06:17.951Z,20.40
2023-04-21T13:07:22.125Z,20.60
2023-04-21T13:08:23.782Z,20.50
2023-04-21T13:09:25.619Z,20.60
2023-04-21T13:10:27.311Z,20.60
2023-04-21T13:11:29.352Z,20.70
2023-04-21T13:12:31.084Z,20.90
2023-04-21T13:13:32.713Z,20.90
2023-04-21T13:14:34.405Z,21.10
2023-04-21T13:15:36.113Z,20.90
2023-04-21T13:16:37.967Z,21.10
2023-04-21T13:17:40.610Z,20.90
2023-04-21T13:18:42.363Z,21.00
2023-04-21T13:19:44.046Z,21.10
2023-04-21T13:20:45.996Z,21.20
2023-04-21T13:21:48.238Z,21.30
2023-04-21T13:22:49.996Z,21.30
2023-04-21T13:23:53.403Z,21.40
2023-04-21T13:24:55.043Z,21.50
2023-04-21T13:25:56.862Z,21.60
2023-04-21T13:27:01.996Z,21.70
2023-04-21T13:28:03.947Z,21.70
2023-04-21T13:29:05.767Z,21.70
2023-04-21T13:30:09.642Z,21.80
2023-04-21T13:31:12.038Z,21.80
2023-04-21T13:32:13.909Z,21.90
2023-04-21T13:33:16.652Z,22.00
2023-04-21T13:34:18.482Z,22.00
2023-04-21T13:35:20.333Z,22.10
2023-04-21T13:36:22.219Z,22.20
2023-04-21T13:37:23.904Z,22.30
2023-04-21T13:38:25.615Z,22.30
2023-04-21T13:39:27.644Z,22.40
2023-04-21T13:40:29.421Z,22.40
2023-04-21T13:41:31.435Z,22.50
2023-04-21T13:42:33.791Z,22.50
2023-04-21T13:43:36.149Z,22.60
2023-04-21T13:44:37.928Z,22.70
2023-04-21T13:45:40.053Z,22.60
2023-04-21T13:46:42.648Z,22.90
2023-04-21T13:47:45.025Z,22.90
2023-04-21T13:48:47.612Z,23.00
2023-04-21T13:49:56.723Z,23.10